sensor_id;sensor_type;location;lat;lon;timestamp;P1;durP1;ratioP1;P2;durP2;ratioP2
55575;SDS011;41437;45.478;9.116;2022-08-03T00:02:37;3.20;;;1.60;;
55575;SDS011;41437;45.478;9.116;2022-08-03T00:05:38;4.18;;;1.80;;
55575;SDS011;41437;45.478;9.116;2022-08-03T00:08:40;2.50;;;1.50;;
55575;SDS011;41437;45.478;9.116;2022-08-03T00:11:43;4.10;;;1.60;;
55575;SDS011;41437;45.478;9.116;2022-08-03T00:14:45;3.15;;;1.67;;
55575;SDS011;41437;45.478;9.116;2022-08-03T00:17:46;3.20;;;1.60;;
55575;SDS011;41437;45.478;9.116;2022-08-03T00:20:48;3.35;;;1.48;;
55575;SDS011;41437;45.478;9.116;2022-08-03T00:23:50;3.50;;;1.80;;
55575;SDS011;41437;45.478;9.116;2022-08-03T00:26:53;3.33;;;1.67;;
55575;SDS011;41437;45.478;9.116;2022-08-03T00:29:54;3.28;;;1.77;;
55575;SDS011;41437;45.478;9.116;2022-08-03T00:32:56;3.38;;;1.60;;
55575;SDS011;41437;45.478;9.116;2022-08-03T00:35:58;2.95;;;1.70;;
55575;SDS011;41437;45.478;9.116;2022-08-03T00:39:00;3.35;;;1.65;;
55575;SDS011;41437;45.478;9.116;2022-08-03T00:42:03;4.20;;;1.80;;
55575;SDS011;41437;45.478;9.116;2022-08-03T00:45:06;2.85;;;1.60;;
55575;SDS011;41437;45.478;9.116;2022-08-03T00:48:10;3.38;;;1.70;;
55575;SDS011;41437;45.478;9.116;2022-08-03T00:51:12;2.83;;;1.60;;
55575;SDS011;41437;45.478;9.116;2022-08-03T00:54:14;3.83;;;1.85;;
55575;SDS011;41437;45.478;9.116;2022-08-03T00:57:17;4.30;;;1.73;;
55575;SDS011;41437;45.478;9.116;2022-08-03T01:00:20;3.13;;;1.60;;
55575;SDS011;41437;45.478;9.116;2022-08-03T01:03:23;3.50;;;1.80;;
55575;SDS011;41437;45.478;9.116;2022-08-03T01:06:27;3.65;;;1.80;;
55575;SDS011;41437;45.478;9.116;2022-08-03T01:09:35;2.95;;;1.60;;
55575;SDS011;41437;45.478;9.116;2022-08-03T01:12:56;4.03;;;1.90;;
55575;SDS011;41437;45.478;9.116;2022-08-03T01:16:05;3.35;;;1.63;;
55575;SDS011;41437;45.478;9.116;2022-08-03T01:19:14;2.80;;;1.70;;
55575;SDS011;41437;45.478;9.116;2022-08-03T01:22:44;4.35;;;1.80;;
55575;SDS011;41437;45.478;9.116;2022-08-03T01:26:02;3.40;;;1.80;;
55575;SDS011;41437;45.478;9.116;2022-08-03T01:29:31;3.63;;;1.70;;
55575;SDS011;41437;45.478;9.116;2022-08-03T01:32:51;2.90;;;1.70;;
55575;SDS011;41437;45.478;9.116;2022-08-03T01:35:57;3.20;;;1.80;;
55575;SDS011;41437;45.478;9.116;2022-08-03T01:39:03;3.08;;;1.55;;
55575;SDS011;41437;45.478;9.116;2022-08-03T01:42:08;3.13;;;1.80;;
55575;SDS011;41437;45.478;9.116;2022-08-03T01:45:14;3.10;;;1.70;;
55575;SDS011;41437;45.478;9.116;2022-08-03T01:48:17;3.47;;;1.60;;
55575;SDS011;41437;45.478;9.116;2022-08-03T01:51:20;3.13;;;1.77;;
55575;SDS011;41437;45.478;9.116;2022-08-03T01:57:25;2.72;;;1.67;;
55575;SDS011;41437;45.478;9.116;2022-08-03T02:00:30;3.22;;;1.90;;
55575;SDS011;41437;45.478;9.116;2022-08-03T02:03:33;3.25;;;1.70;;
55575;SDS011;41437;45.478;9.116;2022-08-03T02:06:38;2.95;;;1.60;;
55575;SDS011;41437;45.478;9.116;2022-08-03T02:09:43;3.40;;;1.70;;
55575;SDS011;41437;45.478;9.116;2022-08-03T02:12:47;3.35;;;1.73;;
55575;SDS011;41437;45.478;9.116;2022-08-03T02:15:51;2.65;;;1.60;;
55575;SDS011;41437;45.478;9.116;2022-08-03T02:18:54;2.85;;;1.80;;
55575;SDS011;41437;45.478;9.116;2022-08-03T02:21:58;3.25;;;1.77;;
55575;SDS011;41437;45.478;9.116;2022-08-03T02:25:01;3.35;;;1.90;;
55575;SDS011;41437;45.478;9.116;2022-08-03T02:28:04;3.22;;;1.75;;
55575;SDS011;41437;45.478;9.116;2022-08-03T02:31:13;3.92;;;1.80;;
55575;SDS011;41437;45.478;9.116;2022-08-03T02:34:18;3.28;;;1.50;;
55575;SDS011;41437;45.478;9.116;2022-08-03T02:37:26;3.05;;;1.67;;
55575;SDS011;41437;45.478;9.116;2022-08-03T02:40:31;2.58;;;1.48;;
55575;SDS011;41437;45.478;9.116;2022-08-03T02:43:34;4.38;;;1.88;;
55575;SDS011;41437;45.478;9.116;2022-08-03T02:46:40;3.70;;;1.60;;
55575;SDS011;41437;45.478;9.116;2022-08-03T02:49:44;3.75;;;1.60;;
55575;SDS011;41437;45.478;9.116;2022-08-03T02:52:47;2.83;;;1.60;;
55575;SDS011;41437;45.478;9.116;2022-08-03T02:55:51;2.78;;;1.67;;
55575;SDS011;41437;45.478;9.116;2022-08-03T02:58:55;3.72;;;1.58;;
55575;SDS011;41437;45.478;9.116;2022-08-03T03:02:00;3.55;;;1.73;;
55575;SDS011;41437;45.478;9.116;2022-08-03T03:05:03;4.97;;;1.60;;
55575;SDS011;41437;45.478;9.116;2022-08-03T03:08:05;3.22;;;1.83;;
55575;SDS011;41437;45.478;9.116;2022-08-03T03:11:07;3.38;;;1.70;;
55575;SDS011;41437;45.478;9.116;2022-08-03T03:14:11;2.80;;;1.60;;
55575;SDS011;41437;45.478;9.116;2022-08-03T03:17:16;3.80;;;1.88;;
55575;SDS011;41437;45.478;9.116;2022-08-03T03:20:20;2.38;;;1.58;;
55575;SDS011;41437;45.478;9.116;2022-08-03T03:26:25;4.03;;;1.60;;
55575;SDS011;41437;45.478;9.116;2022-08-03T03:29:27;3.63;;;1.70;;
55575;SDS011;41437;45.478;9.116;2022-08-03T03:32:34;3.55;;;1.98;;
55575;SDS011;41437;45.478;9.116;2022-08-03T03:35:36;3.63;;;1.83;;
55575;SDS011;41437;45.478;9.116;2022-08-03T03:38:39;3.33;;;1.90;;
55575;SDS011;41437;45.478;9.116;2022-08-03T03:41:40;3.08;;;1.52;;
55575;SDS011;41437;45.478;9.116;2022-08-03T03:44:42;3.30;;;1.70;;
55575;SDS011;41437;45.478;9.116;2022-08-03T03:47:46;3.53;;;1.65;;
55575;SDS011;41437;45.478;9.116;2022-08-03T03:50:48;4.53;;;1.90;;
55575;SDS011;41437;45.478;9.116;2022-08-03T03:53:53;3.00;;;1.70;;
55575;SDS011;41437;45.478;9.116;2022-08-03T03:56:56;3.20;;;1.88;;
55575;SDS011;41437;45.478;9.116;2022-08-03T03:59:58;4.55;;;1.80;;
55575;SDS011;41437;45.478;9.116;2022-08-03T04:03:01;3.05;;;1.73;;
55575;SDS011;41437;45.478;9.116;2022-08-03T04:06:03;3.45;;;1.70;;
55575;SDS011;41437;45.478;9.116;2022-08-03T04:09:22;3.88;;;1.83;;
55575;SDS011;41437;45.478;9.116;2022-08-03T04:12:38;3.15;;;1.70;;
55575;SDS011;41437;45.478;9.116;2022-08-03T04:15:41;3.17;;;1.70;;
55575;SDS011;41437;45.478;9.116;2022-08-03T04:18:46;4.15;;;1.80;;
55575;SDS011;41437;45.478;9.116;2022-08-03T04:21:52;4.15;;;1.70;;
55575;SDS011;41437;45.478;9.116;2022-08-03T04:24:59;3.92;;;2.10;;
55575;SDS011;41437;45.478;9.116;2022-08-03T04:28:03;2.95;;;1.77;;
55575;SDS011;41437;45.478;9.116;2022-08-03T04:34:09;3.80;;;1.70;;
55575;SDS011;41437;45.478;9.116;2022-08-03T04:37:13;4.60;;;2.03;;
55575;SDS011;41437;45.478;9.116;2022-08-03T04:40:32;3.45;;;1.88;;
55575;SDS011;41437;45.478;9.116;2022-08-03T04:43:35;3.38;;;1.90;;
55575;SDS011;41437;45.478;9.116;2022-08-03T04:46:39;3.03;;;1.70;;
55575;SDS011;41437;45.478;9.116;2022-08-03T04:49:44;3.10;;;1.85;;
55575;SDS011;41437;45.478;9.116;2022-08-03T04:52:46;3.45;;;1.98;;
55575;SDS011;41437;45.478;9.116;2022-08-03T04:55:48;3.23;;;1.80;;
55575;SDS011;41437;45.478;9.116;2022-08-03T04:58:50;3.63;;;1.80;;
55575;SDS011;41437;45.478;9.116;2022-08-03T05:01:52;4.10;;;2.13;;
55575;SDS011;41437;45.478;9.116;2022-08-03T05:04:55;3.80;;;2.10;;
55575;SDS011;41437;45.478;9.116;2022-08-03T05:07:57;3.45;;;2.00;;
55575;SDS011;41437;45.478;9.116;2022-08-03T05:10:59;3.00;;;1.92;;
55575;SDS011;41437;45.478;9.116;2022-08-03T05:14:01;3.10;;;1.88;;
55575;SDS011;41437;45.478;9.116;2022-08-03T05:17:03;3.78;;;1.98;;
55575;SDS011;41437;45.478;9.116;2022-08-03T05:20:07;3.63;;;2.03;;
55575;SDS011;41437;45.478;9.116;2022-08-03T05:23:10;3.42;;;2.00;;
55575;SDS011;41437;45.478;9.116;2022-08-03T05:26:11;2.85;;;1.88;;
55575;SDS011;41437;45.478;9.116;2022-08-03T05:29:13;3.17;;;1.90;;
55575;SDS011;41437;45.478;9.116;2022-08-03T05:32:15;3.40;;;1.98;;
55575;SDS011;41437;45.478;9.116;2022-08-03T05:35:19;3.38;;;1.90;;
55575;SDS011;41437;45.478;9.116;2022-08-03T05:38:20;3.03;;;1.80;;
55575;SDS011;41437;45.478;9.116;2022-08-03T05:41:23;3.50;;;1.80;;
55575;SDS011;41437;45.478;9.116;2022-08-03T05:44:24;3.42;;;1.80;;
55575;SDS011;41437;45.478;9.116;2022-08-03T05:47:26;4.20;;;1.70;;
55575;SDS011;41437;45.478;9.116;2022-08-03T05:50:29;3.78;;;2.10;;
55575;SDS011;41437;45.478;9.116;2022-08-03T05:53:32;3.40;;;1.92;;
55575;SDS011;41437;45.478;9.116;2022-08-03T05:56:34;2.80;;;1.65;;
55575;SDS011;41437;45.478;9.116;2022-08-03T05:59:36;3.53;;;1.88;;
55575;SDS011;41437;45.478;9.116;2022-08-03T06:02:38;4.22;;;1.88;;
55575;SDS011;41437;45.478;9.116;2022-08-03T06:05:42;4.00;;;1.75;;
55575;SDS011;41437;45.478;9.116;2022-08-03T06:08:44;3.63;;;2.00;;
55575;SDS011;41437;45.478;9.116;2022-08-03T06:11:47;3.83;;;1.90;;
55575;SDS011;41437;45.478;9.116;2022-08-03T06:14:49;3.28;;;1.80;;
55575;SDS011;41437;45.478;9.116;2022-08-03T06:17:51;3.90;;;1.80;;
55575;SDS011;41437;45.478;9.116;2022-08-03T06:20:54;3.72;;;1.90;;
55575;SDS011;41437;45.478;9.116;2022-08-03T06:23:56;3.25;;;1.90;;
55575;SDS011;41437;45.478;9.116;2022-08-03T06:26:57;3.42;;;1.80;;
55575;SDS011;41437;45.478;9.116;2022-08-03T06:29:59;3.63;;;1.90;;
55575;SDS011;41437;45.478;9.116;2022-08-03T06:33:01;3.72;;;1.88;;
55575;SDS011;41437;45.478;9.116;2022-08-03T06:36:04;4.60;;;1.70;;
55575;SDS011;41437;45.478;9.116;2022-08-03T06:39:06;3.17;;;1.90;;
55575;SDS011;41437;45.478;9.116;2022-08-03T06:42:08;3.53;;;1.85;;
55575;SDS011;41437;45.478;9.116;2022-08-03T06:45:10;3.60;;;1.77;;
55575;SDS011;41437;45.478;9.116;2022-08-03T06:48:12;3.10;;;1.75;;
55575;SDS011;41437;45.478;9.116;2022-08-03T06:51:15;3.28;;;1.80;;
55575;SDS011;41437;45.478;9.116;2022-08-03T06:54:17;4.22;;;1.88;;
55575;SDS011;41437;45.478;9.116;2022-08-03T06:57:21;3.17;;;1.83;;
55575;SDS011;41437;45.478;9.116;2022-08-03T07:00:22;4.93;;;1.80;;
55575;SDS011;41437;45.478;9.116;2022-08-03T07:03:25;4.13;;;1.77;;
55575;SDS011;41437;45.478;9.116;2022-08-03T07:06:28;3.80;;;1.70;;
55575;SDS011;41437;45.478;9.116;2022-08-03T07:09:30;3.65;;;1.70;;
55575;SDS011;41437;45.478;9.116;2022-08-03T07:12:32;3.50;;;1.77;;
55575;SDS011;41437;45.478;9.116;2022-08-03T07:15:35;3.22;;;1.70;;
55575;SDS011;41437;45.478;9.116;2022-08-03T07:18:37;3.58;;;1.80;;
55575;SDS011;41437;45.478;9.116;2022-08-03T07:21:41;3.67;;;1.75;;
55575;SDS011;41437;45.478;9.116;2022-08-03T07:24:42;3.33;;;1.67;;
55575;SDS011;41437;45.478;9.116;2022-08-03T07:27:44;3.10;;;1.85;;
55575;SDS011;41437;45.478;9.116;2022-08-03T07:30:47;4.20;;;1.80;;
55575;SDS011;41437;45.478;9.116;2022-08-03T07:33:49;4.22;;;1.90;;
55575;SDS011;41437;45.478;9.116;2022-08-03T07:36:51;3.05;;;1.63;;
55575;SDS011;41437;45.478;9.116;2022-08-03T07:42:55;2.38;;;1.45;;
55575;SDS011;41437;45.478;9.116;2022-08-03T07:45:57;3.45;;;1.63;;
55575;SDS011;41437;45.478;9.116;2022-08-03T07:48:58;3.00;;;1.63;;
55575;SDS011;41437;45.478;9.116;2022-08-03T07:52:02;3.35;;;1.60;;
55575;SDS011;41437;45.478;9.116;2022-08-03T07:55:23;3.20;;;1.70;;
55575;SDS011;41437;45.478;9.116;2022-08-03T07:58:29;4.93;;;1.73;;
55575;SDS011;41437;45.478;9.116;2022-08-03T08:01:31;3.25;;;1.77;;
55575;SDS011;41437;45.478;9.116;2022-08-03T08:04:35;3.20;;;1.67;;
55575;SDS011;41437;45.478;9.116;2022-08-03T08:07:41;2.95;;;1.60;;
55575;SDS011;41437;45.478;9.116;2022-08-03T08:13:45;3.30;;;1.50;;
55575;SDS011;41437;45.478;9.116;2022-08-03T08:16:46;3.25;;;1.70;;
55575;SDS011;41437;45.478;9.116;2022-08-03T08:19:48;3.73;;;1.50;;
55575;SDS011;41437;45.478;9.116;2022-08-03T08:22:51;3.90;;;1.80;;
55575;SDS011;41437;45.478;9.116;2022-08-03T08:25:57;3.10;;;1.60;;
55575;SDS011;41437;45.478;9.116;2022-08-03T08:28:58;2.95;;;1.60;;
55575;SDS011;41437;45.478;9.116;2022-08-03T08:32:00;4.30;;;1.80;;
55575;SDS011;41437;45.478;9.116;2022-08-03T08:35:02;3.25;;;1.67;;
55575;SDS011;41437;45.478;9.116;2022-08-03T08:38:05;4.57;;;2.00;;
55575;SDS011;41437;45.478;9.116;2022-08-03T08:41:15;4.57;;;1.67;;
55575;SDS011;41437;45.478;9.116;2022-08-03T08:44:18;3.50;;;1.75;;
55575;SDS011;41437;45.478;9.116;2022-08-03T08:47:28;4.10;;;1.75;;
55575;SDS011;41437;45.478;9.116;2022-08-03T08:50:31;3.50;;;1.80;;
55575;SDS011;41437;45.478;9.116;2022-08-03T08:53:36;4.80;;;1.77;;
55575;SDS011;41437;45.478;9.116;2022-08-03T08:56:41;3.88;;;1.77;;
55575;SDS011;41437;45.478;9.116;2022-08-03T08:59:43;3.38;;;1.60;;
55575;SDS011;41437;45.478;9.116;2022-08-03T09:02:48;3.08;;;1.60;;
55575;SDS011;41437;45.478;9.116;2022-08-03T09:05:50;2.75;;;1.52;;
55575;SDS011;41437;45.478;9.116;2022-08-03T09:08:53;3.28;;;1.80;;
55575;SDS011;41437;45.478;9.116;2022-08-03T09:11:55;2.75;;;1.60;;
55575;SDS011;41437;45.478;9.116;2022-08-03T09:14:58;4.95;;;1.77;;
55575;SDS011;41437;45.478;9.116;2022-08-03T09:18:22;2.60;;;1.40;;
55575;SDS011;41437;45.478;9.116;2022-08-03T09:21:29;3.08;;;1.60;;
55575;SDS011;41437;45.478;9.116;2022-08-03T09:24:32;3.10;;;1.67;;
55575;SDS011;41437;45.478;9.116;2022-08-03T09:27:40;3.00;;;1.65;;
55575;SDS011;41437;45.478;9.116;2022-08-03T09:30:43;2.70;;;1.60;;
55575;SDS011;41437;45.478;9.116;2022-08-03T09:33:59;3.45;;;1.60;;
55575;SDS011;41437;45.478;9.116;2022-08-03T09:37:02;2.50;;;1.50;;
55575;SDS011;41437;45.478;9.116;2022-08-03T09:40:15;2.50;;;1.50;;
55575;SDS011;41437;45.478;9.116;2022-08-03T09:43:37;3.38;;;1.70;;
55575;SDS011;41437;45.478;9.116;2022-08-03T09:46:47;2.95;;;1.67;;
55575;SDS011;41437;45.478;9.116;2022-08-03T09:49:55;2.65;;;1.50;;
55575;SDS011;41437;45.478;9.116;2022-08-03T09:53:00;2.85;;;1.52;;
55575;SDS011;41437;45.478;9.116;2022-08-03T09:56:04;2.72;;;1.38;;
55575;SDS011;41437;45.478;9.116;2022-08-03T09:59:06;3.13;;;1.67;;
55575;SDS011;41437;45.478;9.116;2022-08-03T10:02:16;4.53;;;1.60;;
55575;SDS011;41437;45.478;9.116;2022-08-03T10:05:30;2.35;;;1.40;;
55575;SDS011;41437;45.478;9.116;2022-08-03T10:08:33;3.05;;;1.38;;
55575;SDS011;41437;45.478;9.116;2022-08-03T10:11:36;2.42;;;1.40;;
55575;SDS011;41437;45.478;9.116;2022-08-03T10:14:39;4.43;;;1.60;;
55575;SDS011;41437;45.478;9.116;2022-08-03T10:17:44;3.55;;;1.50;;
55575;SDS011;41437;45.478;9.116;2022-08-03T10:20:48;3.00;;;1.50;;
55575;SDS011;41437;45.478;9.116;2022-08-03T10:23:52;3.83;;;1.73;;
55575;SDS011;41437;45.478;9.116;2022-08-03T10:26:59;4.00;;;1.70;;
55575;SDS011;41437;45.478;9.116;2022-08-03T10:30:03;3.10;;;1.70;;
55575;SDS011;41437;45.478;9.116;2022-08-03T10:33:09;2.33;;;1.40;;
55575;SDS011;41437;45.478;9.116;2022-08-03T10:36:16;3.05;;;1.50;;
55575;SDS011;41437;45.478;9.116;2022-08-03T10:39:18;2.63;;;1.50;;
55575;SDS011;41437;45.478;9.116;2022-08-03T10:42:24;2.42;;;1.48;;
55575;SDS011;41437;45.478;9.116;2022-08-03T10:45:30;2.63;;;1.67;;
55575;SDS011;41437;45.478;9.116;2022-08-03T10:48:36;3.88;;;1.50;;
55575;SDS011;41437;45.478;9.116;2022-08-03T10:51:38;3.13;;;1.70;;
55575;SDS011;41437;45.478;9.116;2022-08-03T10:54:42;2.67;;;1.52;;
55575;SDS011;41437;45.478;9.116;2022-08-03T10:58:03;2.90;;;1.40;;
55575;SDS011;41437;45.478;9.116;2022-08-03T11:01:05;3.55;;;1.60;;
55575;SDS011;41437;45.478;9.116;2022-08-03T11:07:17;3.67;;;1.67;;
55575;SDS011;41437;45.478;9.116;2022-08-03T11:10:28;3.75;;;1.88;;
55575;SDS011;41437;45.478;9.116;2022-08-03T11:13:32;3.45;;;1.80;;
55575;SDS011;41437;45.478;9.116;2022-08-03T11:16:34;3.17;;;1.58;;
55575;SDS011;41437;45.478;9.116;2022-08-03T11:19:41;3.08;;;1.70;;
55575;SDS011;41437;45.478;9.116;2022-08-03T11:22:48;3.13;;;1.80;;
55575;SDS011;41437;45.478;9.116;2022-08-03T11:29:28;3.17;;;1.73;;
55575;SDS011;41437;45.478;9.116;2022-08-03T11:36:00;2.25;;;1.40;;
55575;SDS011;41437;45.478;9.116;2022-08-03T11:39:11;2.67;;;1.70;;
55575;SDS011;41437;45.478;9.116;2022-08-03T11:45:56;2.25;;;1.30;;
55575;SDS011;41437;45.478;9.116;2022-08-03T11:49:02;3.00;;;1.73;;
55575;SDS011;41437;45.478;9.116;2022-08-03T11:52:06;2.35;;;1.40;;
55575;SDS011;41437;45.478;9.116;2022-08-03T11:55:10;2.70;;;1.63;;
55575;SDS011;41437;45.478;9.116;2022-08-03T11:58:17;2.60;;;1.50;;
55575;SDS011;41437;45.478;9.116;2022-08-03T12:01:21;2.35;;;1.50;;
55575;SDS011;41437;45.478;9.116;2022-08-03T12:04:26;2.10;;;1.40;;
55575;SDS011;41437;45.478;9.116;2022-08-03T12:07:31;2.33;;;1.48;;
55575;SDS011;41437;45.478;9.116;2022-08-03T12:10:36;2.88;;;1.60;;
55575;SDS011;41437;45.478;9.116;2022-08-03T12:13:40;3.53;;;1.60;;
55575;SDS011;41437;45.478;9.116;2022-08-03T12:16:49;2.90;;;1.60;;
55575;SDS011;41437;45.478;9.116;2022-08-03T12:19:51;3.05;;;1.55;;
55575;SDS011;41437;45.478;9.116;2022-08-03T12:22:52;2.55;;;1.52;;
55575;SDS011;41437;45.478;9.116;2022-08-03T12:25:59;2.30;;;1.30;;
55575;SDS011;41437;45.478;9.116;2022-08-03T12:29:02;3.58;;;1.50;;
55575;SDS011;41437;45.478;9.116;2022-08-03T12:32:05;2.42;;;1.50;;
55575;SDS011;41437;45.478;9.116;2022-08-03T12:35:07;2.50;;;1.33;;
55575;SDS011;41437;45.478;9.116;2022-08-03T12:38:09;3.13;;;1.40;;
55575;SDS011;41437;45.478;9.116;2022-08-03T12:41:12;2.17;;;1.33;;
55575;SDS011;41437;45.478;9.116;2022-08-03T12:44:15;2.72;;;1.40;;
55575;SDS011;41437;45.478;9.116;2022-08-03T12:47:18;2.95;;;1.45;;
55575;SDS011;41437;45.478;9.116;2022-08-03T12:50:26;2.42;;;1.50;;
55575;SDS011;41437;45.478;9.116;2022-08-03T12:53:31;2.45;;;1.50;;
55575;SDS011;41437;45.478;9.116;2022-08-03T12:56:32;2.47;;;1.38;;
55575;SDS011;41437;45.478;9.116;2022-08-03T12:59:35;2.40;;;1.50;;
55575;SDS011;41437;45.478;9.116;2022-08-03T13:02:40;2.40;;;1.50;;
55575;SDS011;41437;45.478;9.116;2022-08-03T13:05:43;2.65;;;1.48;;
55575;SDS011;41437;45.478;9.116;2022-08-03T13:11:48;2.07;;;1.50;;
55575;SDS011;41437;45.478;9.116;2022-08-03T13:15:06;2.50;;;1.38;;
55575;SDS011;41437;45.478;9.116;2022-08-03T13:18:09;2.90;;;1.50;;
55575;SDS011;41437;45.478;9.116;2022-08-03T13:21:11;2.78;;;1.33;;
55575;SDS011;41437;45.478;9.116;2022-08-03T13:24:14;2.30;;;1.40;;
55575;SDS011;41437;45.478;9.116;2022-08-03T13:27:16;2.92;;;1.50;;
55575;SDS011;41437;45.478;9.116;2022-08-03T13:30:19;2.92;;;1.40;;
55575;SDS011;41437;45.478;9.116;2022-08-03T13:33:22;2.30;;;1.40;;
55575;SDS011;41437;45.478;9.116;2022-08-03T13:36:24;3.35;;;1.35;;
55575;SDS011;41437;45.478;9.116;2022-08-03T13:39:25;3.00;;;1.50;;
55575;SDS011;41437;45.478;9.116;2022-08-03T13:42:27;3.47;;;1.45;;
55575;SDS011;41437;45.478;9.116;2022-08-03T13:45:30;2.50;;;1.30;;
55575;SDS011;41437;45.478;9.116;2022-08-03T13:48:33;2.40;;;1.40;;
55575;SDS011;41437;45.478;9.116;2022-08-03T13:51:35;2.88;;;1.48;;
55575;SDS011;41437;45.478;9.116;2022-08-03T13:54:37;3.33;;;1.47;;
55575;SDS011;41437;45.478;9.116;2022-08-03T13:57:41;1.95;;;1.23;;
55575;SDS011;41437;45.478;9.116;2022-08-03T14:00:44;2.17;;;1.27;;
55575;SDS011;41437;45.478;9.116;2022-08-03T14:03:47;2.00;;;1.20;;
55575;SDS011;41437;45.478;9.116;2022-08-03T14:06:53;3.55;;;1.60;;
55575;SDS011;41437;45.478;9.116;2022-08-03T14:09:54;1.98;;;1.30;;
55575;SDS011;41437;45.478;9.116;2022-08-03T14:12:56;2.53;;;1.40;;
55575;SDS011;41437;45.478;9.116;2022-08-03T14:15:59;2.75;;;1.40;;
55575;SDS011;41437;45.478;9.116;2022-08-03T14:19:02;2.58;;;1.40;;
55575;SDS011;41437;45.478;9.116;2022-08-03T14:22:04;3.08;;;1.40;;
55575;SDS011;41437;45.478;9.116;2022-08-03T14:25:06;2.33;;;1.30;;
55575;SDS011;41437;45.478;9.116;2022-08-03T14:28:08;2.45;;;1.40;;
55575;SDS011;41437;45.478;9.116;2022-08-03T14:31:10;2.45;;;1.40;;
55575;SDS011;41437;45.478;9.116;2022-08-03T14:34:13;2.10;;;1.20;;
55575;SDS011;41437;45.478;9.116;2022-08-03T14:37:15;2.40;;;1.40;;
55575;SDS011;41437;45.478;9.116;2022-08-03T14:40:19;2.08;;;1.23;;
55575;SDS011;41437;45.478;9.116;2022-08-03T14:43:21;2.47;;;1.42;;
55575;SDS011;41437;45.478;9.116;2022-08-03T14:46:23;2.65;;;1.30;;
55575;SDS011;41437;45.478;9.116;2022-08-03T14:49:26;2.00;;;1.30;;
55575;SDS011;41437;45.478;9.116;2022-08-03T14:52:27;2.20;;;1.40;;
55575;SDS011;41437;45.478;9.116;2022-08-03T14:55:29;2.43;;;1.30;;
55575;SDS011;41437;45.478;9.116;2022-08-03T14:58:31;2.37;;;1.40;;
55575;SDS011;41437;45.478;9.116;2022-08-03T15:01:33;2.43;;;1.47;;
55575;SDS011;41437;45.478;9.116;2022-08-03T15:04:36;3.08;;;1.40;;
55575;SDS011;41437;45.478;9.116;2022-08-03T15:07:37;3.15;;;1.40;;
55575;SDS011;41437;45.478;9.116;2022-08-03T15:10:39;3.03;;;1.60;;
55575;SDS011;41437;45.478;9.116;2022-08-03T15:13:41;2.95;;;1.30;;
55575;SDS011;41437;45.478;9.116;2022-08-03T15:16:42;3.10;;;1.50;;
55575;SDS011;41437;45.478;9.116;2022-08-03T15:19:45;4.05;;;1.65;;
55575;SDS011;41437;45.478;9.116;2022-08-03T15:22:47;1.92;;;1.30;;
55575;SDS011;41437;45.478;9.116;2022-08-03T15:25:49;2.58;;;1.38;;
55575;SDS011;41437;45.478;9.116;2022-08-03T15:28:50;2.40;;;1.40;;
55575;SDS011;41437;45.478;9.116;2022-08-03T15:31:52;2.30;;;1.38;;
55575;SDS011;41437;45.478;9.116;2022-08-03T15:34:55;3.50;;;1.40;;
55575;SDS011;41437;45.478;9.116;2022-08-03T15:37:57;3.42;;;1.42;;
55575;SDS011;41437;45.478;9.116;2022-08-03T15:40:58;2.17;;;1.33;;
55575;SDS011;41437;45.478;9.116;2022-08-03T15:44:00;2.25;;;1.30;;
55575;SDS011;41437;45.478;9.116;2022-08-03T15:47:02;2.30;;;1.20;;
55575;SDS011;41437;45.478;9.116;2022-08-03T15:50:05;2.40;;;1.30;;
55575;SDS011;41437;45.478;9.116;2022-08-03T15:53:07;2.33;;;1.38;;
55575;SDS011;41437;45.478;9.116;2022-08-03T15:56:09;1.80;;;1.20;;
55575;SDS011;41437;45.478;9.116;2022-08-03T15:59:11;2.70;;;1.30;;
55575;SDS011;41437;45.478;9.116;2022-08-03T16:02:13;2.20;;;1.30;;
55575;SDS011;41437;45.478;9.116;2022-08-03T16:05:16;2.30;;;1.20;;
55575;SDS011;41437;45.478;9.116;2022-08-03T16:08:18;2.30;;;1.30;;
55575;SDS011;41437;45.478;9.116;2022-08-03T16:11:20;2.78;;;1.52;;
55575;SDS011;41437;45.478;9.116;2022-08-03T16:14:22;2.70;;;1.30;;
55575;SDS011;41437;45.478;9.116;2022-08-03T16:17:23;2.55;;;1.40;;
55575;SDS011;41437;45.478;9.116;2022-08-03T16:20:26;2.03;;;1.30;;
55575;SDS011;41437;45.478;9.116;2022-08-03T16:23:28;2.85;;;1.50;;
55575;SDS011;41437;45.478;9.116;2022-08-03T16:26:30;2.35;;;1.20;;
55575;SDS011;41437;45.478;9.116;2022-08-03T16:29:32;2.67;;;1.33;;
55575;SDS011;41437;45.478;9.116;2022-08-03T16:32:33;2.78;;;1.40;;
55575;SDS011;41437;45.478;9.116;2022-08-03T16:35:38;2.15;;;1.23;;
55575;SDS011;41437;45.478;9.116;2022-08-03T16:38:40;2.70;;;1.27;;
55575;SDS011;41437;45.478;9.116;2022-08-03T16:41:41;2.13;;;1.20;;
55575;SDS011;41437;45.478;9.116;2022-08-03T16:44:43;2.90;;;1.42;;
55575;SDS011;41437;45.478;9.116;2022-08-03T16:47:45;2.13;;;1.30;;
55575;SDS011;41437;45.478;9.116;2022-08-03T16:50:48;2.20;;;1.20;;
55575;SDS011;41437;45.478;9.116;2022-08-03T16:53:49;2.53;;;1.20;;
55575;SDS011;41437;45.478;9.116;2022-08-03T16:56:51;2.20;;;1.30;;
55575;SDS011;41437;45.478;9.116;2022-08-03T16:59:53;2.50;;;1.30;;
55575;SDS011;41437;45.478;9.116;2022-08-03T17:02:55;4.50;;;1.40;;
55575;SDS011;41437;45.478;9.116;2022-08-03T17:06:00;2.40;;;1.23;;
55575;SDS011;41437;45.478;9.116;2022-08-03T17:09:02;2.00;;;1.30;;
55575;SDS011;41437;45.478;9.116;2022-08-03T17:12:05;2.25;;;1.20;;
55575;SDS011;41437;45.478;9.116;2022-08-03T17:15:08;2.15;;;1.20;;
55575;SDS011;41437;45.478;9.116;2022-08-03T17:18:10;2.53;;;1.10;;
55575;SDS011;41437;45.478;9.116;2022-08-03T17:21:21;2.85;;;1.30;;
55575;SDS011;41437;45.478;9.116;2022-08-03T17:24:30;2.13;;;1.23;;
55575;SDS011;41437;45.478;9.116;2022-08-03T17:27:33;2.80;;;1.35;;
55575;SDS011;41437;45.478;9.116;2022-08-03T17:30:36;3.22;;;1.25;;
55575;SDS011;41437;45.478;9.116;2022-08-03T17:33:56;1.77;;;1.15;;
55575;SDS011;41437;45.478;9.116;2022-08-03T17:36:59;2.55;;;1.30;;
55575;SDS011;41437;45.478;9.116;2022-08-03T17:40:01;2.08;;;1.23;;
55575;SDS011;41437;45.478;9.116;2022-08-03T17:46:05;2.17;;;1.25;;
55575;SDS011;41437;45.478;9.116;2022-08-03T17:49:07;2.10;;;1.20;;
55575;SDS011;41437;45.478;9.116;2022-08-03T17:52:11;1.80;;;1.13;;
55575;SDS011;41437;45.478;9.116;2022-08-03T17:55:21;2.33;;;1.10;;
55575;SDS011;41437;45.478;9.116;2022-08-03T17:58:35;2.00;;;1.23;;
55575;SDS011;41437;45.478;9.116;2022-08-03T18:01:43;2.17;;;1.20;;
55575;SDS011;41437;45.478;9.116;2022-08-03T18:05:04;1.80;;;1.10;;
55575;SDS011;41437;45.478;9.116;2022-08-03T18:08:08;2.80;;;1.40;;
55575;SDS011;41437;45.478;9.116;2022-08-03T18:11:13;3.10;;;1.35;;
55575;SDS011;41437;45.478;9.116;2022-08-03T18:14:22;2.45;;;1.30;;
55575;SDS011;41437;45.478;9.116;2022-08-03T18:17:32;2.65;;;1.30;;
55575;SDS011;41437;45.478;9.116;2022-08-03T18:20:34;2.35;;;1.20;;
55575;SDS011;41437;45.478;9.116;2022-08-03T18:23:40;2.58;;;1.25;;
55575;SDS011;41437;45.478;9.116;2022-08-03T18:26:42;3.00;;;1.30;;
55575;SDS011;41437;45.478;9.116;2022-08-03T18:29:45;1.80;;;1.10;;
55575;SDS011;41437;45.478;9.116;2022-08-03T18:32:47;2.30;;;1.10;;
55575;SDS011;41437;45.478;9.116;2022-08-03T18:35:50;2.17;;;1.20;;
55575;SDS011;41437;45.478;9.116;2022-08-03T18:38:53;2.33;;;1.30;;
55575;SDS011;41437;45.478;9.116;2022-08-03T18:41:56;2.38;;;1.20;;
55575;SDS011;41437;45.478;9.116;2022-08-03T18:48:02;2.00;;;1.27;;
55575;SDS011;41437;45.478;9.116;2022-08-03T18:51:12;2.28;;;1.20;;
55575;SDS011;41437;45.478;9.116;2022-08-03T18:54:19;2.05;;;1.20;;
55575;SDS011;41437;45.478;9.116;2022-08-03T18:57:28;3.00;;;1.40;;
55575;SDS011;41437;45.478;9.116;2022-08-03T19:00:40;1.90;;;1.20;;
55575;SDS011;41437;45.478;9.116;2022-08-03T19:03:46;2.30;;;1.23;;
55575;SDS011;41437;45.478;9.116;2022-08-03T19:06:50;2.53;;;1.30;;
55575;SDS011;41437;45.478;9.116;2022-08-03T19:10:02;2.60;;;1.20;;